Time;durP1;ratioP1;P1;durP2;ratioP2;P2;SDS_P1;SDS_P2;PMS_P1;PMS_P2;Temp;Humidity;BMP_temperature;BMP_pressure;BME280_temperature;BME280_humidity;BME280_pressure;Samples;Min_cycle;Max_cycle;Signal;HPM_P1;HPM_P2
2020/12/14 00:04:06;;;;;;;84.57;43.60;;;21.90;52.90;;;;;;21085641;28;20723;-16
2020/12/14 00:14:07;;;;;;;70.95;35.67;;;21.60;53.00;;;;;;21070630;28;20081;-15
2020/12/14 00:24:08;;;;;;;51.28;26.40;;;21.40;53.10;;;;;;21072400;28;20031;-16
2020/12/14 00:34:09;;;;;;;41.75;22.40;;;21.20;52.90;;;;;;21068655;28;20103;-15
2020/12/14 00:44:09;;;;;;;41.70;23.05;;;21.20;52.40;;;;;;21068799;28;20032;-15
2020/12/14 00:54:10;;;;;;;34.90;18.15;;;21.10;52.50;;;;;;21068812;28;20032;-15
2020/12/14 01:04:10;;;;;;;28.85;16.15;;;21.00;52.00;;;;;;21082084;28;20024;-15
2020/12/14 01:14:11;;;;;;;28.27;16.30;;;20.90;52.50;;;;;;21069418;28;20432;-15
2020/12/14 01:24:12;;;;;;;24.67;14.90;;;21.00;52.30;;;;;;21067795;28;20040;-15
2020/12/14 01:34:12;;;;;;;23.17;13.27;;;20.90;52.70;;;;;;21077206;28;20030;-15
2020/12/14 01:44:13;;;;;;;21.92;11.90;;;21.20;52.30;;;;;;21074835;28;20039;-15
2020/12/14 01:54:23;;;;;;;15.55;10.07;;;21.20;51.90;;;;;;21077414;28;20028;-15
2020/12/14 02:04:23;;;;;;;17.52;9.20;;;21.40;51.50;;;;;;21079835;28;20016;-15
2020/12/14 02:14:24;;;;;;;19.08;9.40;;;21.30;51.20;;;;;;21079852;28;20107;-15
2020/12/14 02:24:25;;;;;;;13.88;7.30;;;21.40;50.90;;;;;;21079385;28;20058;-15
2020/12/14 02:34:25;;;;;;;11.20;6.63;;;21.30;50.80;;;;;;21076961;28;20051;-16
2020/12/14 02:44:26;;;;;;;11.38;7.30;;;21.40;50.40;;;;;;21077380;28;20036;-15
2020/12/14 02:54:26;;;;;;;13.13;5.80;;;21.30;50.30;;;;;;21076949;28;20020;-15
2020/12/14 03:04:27;;;;;;;9.13;5.03;;;21.40;50.00;;;;;;21076004;28;20047;-16
2020/12/14 03:14:28;;;;;;;12.35;6.90;;;21.40;49.90;;;;;;21075191;28;20086;-15
2020/12/14 03:24:28;;;;;;;6.47;4.75;;;21.40;49.50;;;;;;21075104;28;20024;-15
2020/12/14 03:34:29;;;;;;;9.45;4.57;;;21.40;49.50;;;;;;21076888;28;20038;-16
2020/12/14 03:44:29;;;;;;;7.00;4.18;;;21.50;49.00;;;;;;21093351;28;20051;-16
2020/12/14 03:54:30;;;;;;;6.18;3.83;;;21.40;49.00;;;;;;21061080;28;20032;-17
2020/12/14 04:04:30;;;;;;;4.93;3.45;;;21.50;49.10;;;;;;21054684;28;20085;-15
2020/12/14 04:14:31;;;;;;;5.93;3.03;;;21.50;48.60;;;;;;21071690;28;20028;-15
2020/12/14 04:24:31;;;;;;;5.55;2.83;;;21.50;48.30;;;;;;21070847;28;20032;-15
2020/12/14 04:34:32;;;;;;;4.55;2.70;;;21.50;48.40;;;;;;21069545;28;20035;-16
2020/12/14 04:44:34;;;;;;;5.75;2.95;;;21.50;48.20;;;;;;21051546;28;20024;-16
2020/12/14 04:54:35;;;;;;;7.32;3.00;;;21.50;48.30;;;;;;21068857;28;20035;-16
2020/12/14 05:04:39;;;;;;;4.22;2.47;;;21.50;48.00;;;;;;21068479;28;20424;-16
2020/12/14 05:14:40;;;;;;;3.42;2.05;;;21.50;48.00;;;;;;21068062;28;20028;-16
2020/12/14 05:24:46;;;;;;;4.88;2.05;;;21.50;47.80;;;;;;21070894;28;20056;-15
2020/12/14 05:34:47;;;;;;;4.32;2.17;;;21.60;47.80;;;;;;21083851;28;20093;-16
2020/12/14 05:44:49;;;;;;;3.15;1.45;;;21.60;47.60;;;;;;21099251;28;20032;-17
2020/12/14 05:54:52;;;;;;;4.70;1.90;;;21.50;47.60;;;;;;21081910;28;20036;-15
2020/12/14 06:04:57;;;;;;;4.07;1.33;;;21.50;47.30;;;;;;21079982;28;20111;-16
2020/12/14 06:15:06;;;;;;;2.70;1.63;;;21.60;47.20;;;;;;21081537;28;20043;-15
2020/12/14 06:25:07;;;;;;;5.75;1.40;;;21.60;47.20;;;;;;21081611;28;20411;-16
2020/12/14 06:35:15;;;;;;;3.03;1.20;;;21.60;47.10;;;;;;21081609;28;20028;-16
2020/12/14 06:45:17;;;;;;;4.20;1.50;;;21.60;46.90;;;;;;21080806;28;20028;-16
2020/12/14 06:55:44;;;;;;;4.00;1.35;;;21.70;46.70;;;;;;21077826;28;20035;-16
2020/12/14 07:05:58;;;;;;;6.82;1.88;;;21.80;46.50;;;;;;21058004;28;20345;-17
2020/12/14 07:16:08;;;;;;;8.23;2.08;;;21.80;46.60;;;;;;21075361;28;20024;-16
2020/12/14 07:26:11;;;;;;;6.07;1.63;;;21.80;46.60;;;;;;21075830;28;20115;-16
2020/12/14 07:36:12;;;;;;;14.18;2.50;;;21.90;46.40;;;;;;21074328;28;20031;-16
2020/12/14 07:46:17;;;;;;;7.55;1.77;;;21.80;46.60;;;;;;21071178;28;20142;-17
2020/12/14 07:56:19;;;;;;;5.85;2.33;;;21.80;46.50;;;;;;21074983;28;20483;-16
2020/12/14 08:06:19;;;;;;;5.57;1.85;;;21.60;46.70;;;;;;21069126;28;20024;-16
2020/12/14 08:16:21;;;;;;;5.10;1.40;;;21.50;46.90;;;;;;21068149;28;20024;-15
2020/12/14 08:26:29;;;;;;;6.78;1.85;;;21.30;47.30;;;;;;21069564;28;20024;-15
2020/12/14 08:36:30;;;;;;;6.32;2.45;;;21.10;48.20;;;;;;21069665;28;20028;-15
2020/12/14 08:46:30;;;;;;;10.23;2.25;;;21.00;48.70;;;;;;21071007;28;20437;-15
2020/12/14 08:56:34;;;;;;;11.38;2.30;;;20.80;49.00;;;;;;21068949;28;20432;-16
2020/12/14 09:06:39;;;;;;;13.98;2.13;;;20.70;49.30;;;;;;21084089;28;20028;-16
2020/12/14 09:16:48;;;;;;;27.88;3.30;;;20.70;49.80;;;;;;21070783;28;20081;-17
2020/12/14 09:26:50;;;;;;;13.20;3.42;;;20.50;50.60;;;;;;21067287;28;20058;-17
2020/12/14 09:36:55;;;;;;;42.00;6.07;;;20.50;51.00;;;;;;21068244;28;20107;-16
2020/12/14 09:47:00;;;;;;;24.80;4.43;;;20.50;51.30;;;;;;21092076;28;20122;-16
2020/12/14 09:57:01;;;;;;;27.98;3.88;;;20.40;51.30;;;;;;21053805;28;20028;-16
2020/12/14 10:07:01;;;;;;;27.02;3.97;;;20.30;51.40;;;;;;21060805;28;20036;-16
2020/12/14 10:17:02;;;;;;;18.60;5.13;;;20.30;51.70;;;;;;21060410;28;20504;-19
2020/12/14 10:27:05;;;;;;;33.63;5.22;;;20.30;51.80;;;;;;21061452;28;20410;-18
2020/12/14 10:37:06;;;;;;;17.92;3.80;;;20.30;51.90;;;;;;21060207;28;20020;-15
2020/12/14 10:47:06;;;;;;;18.27;5.53;;;20.20;52.10;;;;;;21041425;28;20032;-15
2020/12/14 10:57:07;;;;;;;21.35;7.82;;;20.20;52.20;;;;;;21055450;28;20416;-15
2020/12/14 11:07:08;;;;;;;16.07;3.33;;;20.40;51.90;;;;;;21057220;28;20024;-15
2020/12/14 11:17:09;;;;;;;29.30;4.90;;;20.90;51.00;;;;;;21058300;28;20110;-17
2020/12/14 11:27:10;;;;;;;10.73;2.70;;;21.60;49.30;;;;;;21054404;28;20074;-17
2020/12/14 11:37:10;;;;;;;6.80;2.80;;;22.30;47.90;;;;;;21055974;28;20045;-17
2020/12/14 11:47:11;;;;;;;8.20;2.63;;;23.00;46.50;;;;;;21052444;28;20028;-15
2020/12/14 11:57:11;;;;;;;6.67;2.50;;;23.30;46.00;;;;;;21053782;28;20024;-16
2020/12/14 12:07:12;;;;;;;12.52;2.53;;;23.20;46.50;;;;;;21054599;28;20259;-16
2020/12/14 12:17:12;;;;;;;12.15;2.60;;;23.00;47.00;;;;;;21053697;28;20564;-15
2020/12/14 12:27:13;;;;;;;16.58;3.17;;;22.70;47.50;;;;;;21053250;28;20024;-16
2020/12/14 12:37:13;;;;;;;11.73;2.57;;;22.40;48.30;;;;;;21052146;28;20547;-16
2020/12/14 12:47:15;;;;;;;9.15;2.08;;;22.10;48.60;;;;;;21070332;28;21082;-16
2020/12/14 12:57:16;;;;;;;6.03;2.22;;;21.90;48.70;;;;;;21068108;28;20081;-17
2020/12/14 13:07:18;;;;;;;9.82;2.42;;;21.90;48.50;;;;;;21062440;28;20462;-16
2020/12/14 13:17:18;;;;;;;9.88;2.08;;;21.70;48.50;;;;;;21065558;28;20035;-17
2020/12/14 13:27:19;;;;;;;5.25;2.03;;;21.80;48.30;;;;;;21065413;28;20098;-16
2020/12/14 13:37:19;;;;;;;16.58;2.17;;;21.80;48.40;;;;;;21076476;28;20117;-16
2020/12/14 13:47:20;;;;;;;10.73;3.05;;;21.90;48.40;;;;;;21073142;28;20040;-16
2020/12/14 13:57:21;;;;;;;10.45;3.10;;;22.00;48.40;;;;;;21075263;28;20572;-15
2020/12/14 14:07:22;;;;;;;11.20;3.13;;;22.00;48.60;;;;;;21111295;28;20090;-16
2020/12/14 14:17:22;;;;;;;9.85;3.33;;;22.10;48.40;;;;;;21076520;28;20115;-16
2020/12/14 14:27:23;;;;;;;5.43;2.45;;;22.10;48.50;;;;;;21084337;28;20039;-15
2020/12/14 14:37:24;;;;;;;6.38;2.30;;;22.10;48.10;;;;;;21072068;28;20481;-15
2020/12/14 14:47:24;;;;;;;15.32;2.95;;;22.20;48.10;;;;;;21074879;28;20040;-15
2020/12/14 14:57:25;;;;;;;10.38;5.45;;;22.10;48.10;;;;;;21075854;28;20107;-16
2020/12/14 15:07:25;;;;;;;10.63;6.10;;;22.20;46.70;;;;;;21071302;28;20170;-17
2020/12/14 15:17:26;;;;;;;9.07;5.07;;;22.10;46.60;;;;;;21078579;28;20056;-16
2020/12/14 15:27:26;;;;;;;11.45;5.68;;;22.10;46.40;;;;;;21073980;28;20078;-16
2020/12/14 15:37:28;;;;;;;15.73;5.78;;;22.10;46.60;;;;;;21071052;28;20051;-16
2020/12/14 15:47:28;;;;;;;8.10;4.78;;;22.10;46.60;;;;;;21075648;28;20093;-16
2020/12/14 15:57:29;;;;;;;11.35;6.38;;;22.00;46.90;;;;;;21072801;28;20377;-16
2020/12/14 16:07:30;;;;;;;13.60;5.75;;;22.10;47.10;;;;;;21070338;28;20028;-16
2020/12/14 16:17:30;;;;;;;8.95;4.80;;;21.90;47.50;;;;;;21061461;28;20028;-16
2020/12/14 16:27:31;;;;;;;24.63;10.18;;;21.90;47.60;;;;;;21076807;28;20431;-16
2020/12/14 16:37:33;;;;;;;18.55;10.93;;;21.90;48.00;;;;;;21069297;28;20051;-16
2020/12/14 16:47:34;;;;;;;22.20;10.63;;;22.10;47.70;;;;;;21068867;28;20404;-15
2020/12/14 16:57:35;;;;;;;16.48;8.35;;;22.00;47.10;;;;;;21067010;28;20032;-15
2020/12/14 17:07:39;;;;;;;23.15;8.10;;;22.10;46.70;;;;;;21068697;28;20466;-16
2020/12/14 17:17:39;;;;;;;15.77;6.57;;;22.10;46.80;;;;;;21066394;28;20025;-15
2020/12/14 17:27:40;;;;;;;10.50;6.38;;;22.10;46.80;;;;;;21086999;28;20043;-16
2020/12/14 17:37:41;;;;;;;10.40;4.60;;;22.20;46.80;;;;;;21085860;28;20070;-16
2020/12/14 17:47:41;;;;;;;18.13;5.50;;;22.10;46.90;;;;;;21078842;28;20060;-16
2020/12/14 17:57:42;;;;;;;16.30;9.73;;;22.10;47.10;;;;;;21077747;28;20043;-17
2020/12/14 18:07:42;;;;;;;20.02;12.07;;;21.90;47.30;;;;;;21081505;28;20028;-18
2020/12/14 18:17:43;;;;;;;15.60;9.52;;;21.90;47.40;;;;;;21080617;28;20032;-15
2020/12/14 18:27:46;;;;;;;20.90;13.27;;;21.70;47.70;;;;;;21093000;28;20414;-16
2020/12/14 18:50:27;;;;;;;25.17;15.45;;;21.80;48.90;;;;;;21103932;22;20083;-16
2020/12/14 21:33:49;;;;;;;30.95;19.73;;;21.90;49.40;;;;;;20985094;28;20429;-15
2020/12/14 21:43:50;;;;;;;32.28;17.95;;;21.70;49.60;;;;;;20987397;28;20025;-15
2020/12/14 21:53:50;;;;;;;30.88;19.27;;;21.60;49.80;;;;;;20985689;28;20453;-15
2020/12/14 22:03:51;;;;;;;27.30;16.48;;;21.40;50.30;;;;;;20986942;28;20024;-16
2020/12/14 22:13:51;;;;;;;25.30;15.18;;;21.30;50.50;;;;;;21022029;28;20029;-16
2020/12/14 22:23:52;;;;;;;22.77;14.32;;;21.10;50.80;;;;;;20998510;28;20396;-16
2020/12/14 22:33:53;;;;;;;24.30;16.00;;;20.80;51.50;;;;;;20995821;28;20028;-16
2020/12/14 22:43:53;;;;;;;19.50;13.15;;;20.70;51.60;;;;;;20996242;28;20039;-16
2020/12/14 22:53:54;;;;;;;26.70;16.73;;;20.60;51.70;;;;;;20995717;28;20507;-16
2020/12/14 23:03:54;;;;;;;31.45;18.77;;;20.60;51.90;;;;;;20996512;28;20053;-16
2020/12/14 23:13:55;;;;;;;26.10;15.68;;;20.70;51.70;;;;;;20993660;28;20025;-16
2020/12/14 23:23:55;;;;;;;24.30;16.80;;;20.50;51.90;;;;;;20997287;28;20024;-16
2020/12/14 23:33:56;;;;;;;28.52;13.07;;;20.40;52.20;;;;;;20990595;28;20032;-15
2020/12/14 23:43:57;;;;;;;23.92;14.05;;;20.50;52.70;;;;;;20987223;28;20530;-14
2020/12/14 23:53:57;;;;;;;22.58;13.35;;;20.40;53.20;;;;;;20989023;28;20043;-15
